createdAt,value
2022-08-22T00:01:06.121Z,99.90
2022-08-22T00:02:59.383Z,99.90
2022-08-22T00:03:09.863Z,99.90
2022-08-22T00:03:40.662Z,99.90
2022-08-22T00:06:10.578Z,99.90
2022-08-22T00:08:45.116Z,99.90
2022-08-22T00:11:12.574Z,99.90
2022-08-22T00:13:54.852Z,99.90
2022-08-22T00:16:28.842Z,99.90
2022-08-22T00:19:14.057Z,99.90
2022-08-22T00:21:58.428Z,99.90
2022-08-22T00:24:35.931Z,99.90
2022-08-22T00:27:08.337Z,99.90
2022-08-22T00:29:41.387Z,99.90
2022-08-22T00:32:23.830Z,99.90
2022-08-22T00:34:56.843Z,99.90
2022-08-22T00:37:26.339Z,99.90
2022-08-22T00:39:58.311Z,99.90
2022-08-22T00:42:46.999Z,99.90
2022-08-22T00:45:36.594Z,99.90
2022-08-22T00:48:23.473Z,99.90
2022-08-22T00:51:19.279Z,99.90
2022-08-22T00:53:50.305Z,99.90
2022-08-22T00:56:36.181Z,99.90
2022-08-22T00:59:23.886Z,99.90
2022-08-22T01:01:51.291Z,99.90
2022-08-22T01:04:20.887Z,99.90
2022-08-22T01:07:05.788Z,99.90
2022-08-22T01:09:38.917Z,99.90
2022-08-22T01:12:31.766Z,99.90
2022-08-22T01:15:01.696Z,99.90
2022-08-22T01:17:50.043Z,99.90
2022-08-22T01:20:28.767Z,99.90
2022-08-22T01:23:24.262Z,99.90
2022-08-22T01:26:09.890Z,99.90
2022-08-22T01:29:10.516Z,99.90
2022-08-22T01:31:40.427Z,99.90
2022-08-22T01:34:25.875Z,99.90
2022-08-22T01:37:11.122Z,99.90
2022-08-22T01:39:56.511Z,99.90
2022-08-22T01:42:38.490Z,99.90
2022-08-22T01:45:14.072Z,99.90
2022-08-22T01:47:41.663Z,99.90
2022-08-22T01:50:26.991Z,99.90
2022-08-22T01:53:00.871Z,99.90
2022-08-22T01:55:34.579Z,99.90
2022-08-22T01:58:04.807Z,99.90
2022-08-22T02:00:35.035Z,99.90
2022-08-22T02:03:14.481Z,99.90
2022-08-22T02:05:50.332Z,99.90
2022-08-22T02:08:30.871Z,99.90
2022-08-22T02:11:00.157Z,99.90
2022-08-22T02:13:26.642Z,99.90
2022-08-22T02:16:06.582Z,99.90
2022-08-22T02:18:41.898Z,99.90
2022-08-22T02:21:11.883Z,99.90
2022-08-22T02:23:52.469Z,99.90
2022-08-22T02:26:41.106Z,99.90
2022-08-22T02:29:13.955Z,99.90
2022-08-22T02:31:58.347Z,99.90
2022-08-22T02:34:38.536Z,99.90
2022-08-22T02:37:11.036Z,99.90
2022-08-22T02:39:41.843Z,99.90
2022-08-22T02:42:14.849Z,99.90
2022-08-22T02:44:47.263Z,99.90
2022-08-22T02:47:27.776Z,99.90
2022-08-22T02:50:00.215Z,99.90
2022-08-22T02:52:33.946Z,99.90
2022-08-22T02:55:07.418Z,99.90
2022-08-22T02:57:39.988Z,99.90
2022-08-22T03:00:31.945Z,99.90
2022-08-22T03:02:59.440Z,99.90
2022-08-22T03:05:38.139Z,99.90
2022-08-22T03:08:08.540Z,99.90
2022-08-22T03:10:39.354Z,99.90
2022-08-22T03:13:16.975Z,99.90
2022-08-22T03:15:49.299Z,99.90
2022-08-22T03:18:19.883Z,99.90
2022-08-22T03:20:53.087Z,99.90
2022-08-22T03:23:38.382Z,99.90
2022-08-22T03:26:21.361Z,99.90
2022-08-22T03:28:59.191Z,99.90
2022-08-22T03:31:27.796Z,99.90
2022-08-22T03:34:13.389Z,99.90
2022-08-22T03:36:40.849Z,99.90
2022-08-22T03:39:33.836Z,99.90
2022-08-22T03:42:12.055Z,99.90
2022-08-22T03:44:49.566Z,99.90
2022-08-22T03:47:42.626Z,99.90
2022-08-22T03:50:21.058Z,99.90
2022-08-22T03:53:15.543Z,99.90
2022-08-22T03:55:51.758Z,99.90
2022-08-22T03:58:36.719Z,99.90
2022-08-22T04:01:26.653Z,99.90
2022-08-22T04:03:59.766Z,99.90
2022-08-22T04:06:38.771Z,99.90
2022-08-22T04:09:34.265Z,99.90
2022-08-22T04:12:18.998Z,99.90
2022-08-22T04:15:10.887Z,99.90
2022-08-22T04:17:46.508Z,99.90
2022-08-22T04:20:13.031Z,99.90
2022-08-22T04:22:59.838Z,99.90
2022-08-22T04:25:35.169Z,99.90
2022-08-22T04:28:13.960Z,99.90
2022-08-22T04:30:43.571Z,99.90
2022-08-22T04:33:14.291Z,99.90
2022-08-22T04:35:44.765Z,99.90
2022-08-22T04:38:21.709Z,99.90
2022-08-22T04:40:51.939Z,99.90
2022-08-22T04:43:27.964Z,99.90
2022-08-22T04:46:15.987Z,99.90
2022-08-22T04:49:01.479Z,99.90
2022-08-22T04:51:32.146Z,99.90
2022-08-22T04:54:17.171Z,99.90
2022-08-22T04:57:02.803Z,99.90
2022-08-22T04:59:30.114Z,99.90
2022-08-22T05:02:06.244Z,99.90
2022-08-22T05:04:36.087Z,99.90
2022-08-22T05:07:02.578Z,99.90
2022-08-22T05:09:32.294Z,99.90
2022-08-22T05:12:02.715Z,99.90
2022-08-22T05:14:36.504Z,99.90
2022-08-22T05:17:05.909Z,99.90
2022-08-22T05:19:35.501Z,99.90
2022-08-22T05:22:04.851Z,99.90
2022-08-22T05:24:42.911Z,99.90
2022-08-22T05:27:11.279Z,99.90
2022-08-22T05:29:39.507Z,99.90
2022-08-22T05:32:07.471Z,99.90
2022-08-22T05:34:37.224Z,99.90
2022-08-22T05:37:19.034Z,99.90
2022-08-22T05:39:47.430Z,99.90
2022-08-22T05:42:16.673Z,99.90
2022-08-22T05:44:43.358Z,99.90
2022-08-22T05:47:23.707Z,99.90
2022-08-22T05:50:05.168Z,99.90
2022-08-22T05:52:41.741Z,99.90
2022-08-22T05:55:08.300Z,99.90
2022-08-22T05:57:37.815Z,99.90
2022-08-22T06:00:07.969Z,99.90
2022-08-22T06:02:37.363Z,99.90
2022-08-22T06:05:07.577Z,99.90
2022-08-22T06:07:41.583Z,99.90
2022-08-22T06:10:17.520Z,99.90
2022-08-22T06:13:02.560Z,99.90
2022-08-22T06:15:33.906Z,99.90
2022-08-22T06:18:03.259Z,99.90
2022-08-22T06:20:34.559Z,99.90
2022-08-22T06:23:02.318Z,99.90
2022-08-22T06:25:33.127Z,99.90
2022-08-22T06:28:08.210Z,99.90
2022-08-22T06:30:36.897Z,99.90
2022-08-22T06:33:06.278Z,99.90
2022-08-22T06:35:55.379Z,99.90
2022-08-22T06:38:24.802Z,99.90
2022-08-22T06:40:54.111Z,99.90
2022-08-22T06:43:22.899Z,99.90
2022-08-22T06:45:49.798Z,99.90
2022-08-22T06:48:18.386Z,99.90
2022-08-22T06:50:48.291Z,99.90
2022-08-22T06:53:24.320Z,99.90
2022-08-22T06:55:52.354Z,99.90
2022-08-22T06:58:25.883Z,99.90
2022-08-22T07:01:11.878Z,99.90
2022-08-22T07:03:47.016Z,99.90
2022-08-22T07:06:19.318Z,99.90
2022-08-22T07:08:52.251Z,99.90
2022-08-22T07:11:29.724Z,99.90
2022-08-22T07:14:13.319Z,99.90
2022-08-22T07:16:45.226Z,99.90
2022-08-22T07:19:25.795Z,99.90
2022-08-22T07:21:52.959Z,99.90
2022-08-22T07:24:22.458Z,99.90
2022-08-22T07:26:48.970Z,99.90
2022-08-22T07:29:30.645Z,99.90
2022-08-22T07:32:06.135Z,99.90
2022-08-22T07:34:44.838Z,99.90
2022-08-22T07:37:16.336Z,99.90
2022-08-22T07:39:54.846Z,99.90
2022-08-22T07:42:30.365Z,99.90
2022-08-22T07:45:07.591Z,99.90
2022-08-22T07:47:46.028Z,99.90
2022-08-22T07:50:20.263Z,99.90
2022-08-22T07:52:47.477Z,99.90
2022-08-22T07:55:19.098Z,99.90
2022-08-22T07:57:54.380Z,99.90
2022-08-22T08:00:21.627Z,99.90
2022-08-22T08:02:53.114Z,99.90
2022-08-22T08:05:24.012Z,99.90
2022-08-22T08:07:53.809Z,99.90
2022-08-22T08:10:26.662Z,99.90
2022-08-22T08:13:02.613Z,99.90
2022-08-22T08:15:30.236Z,99.90
2022-08-22T08:18:00.382Z,99.90
2022-08-22T08:20:27.992Z,99.90
2022-08-22T08:22:57.108Z,99.90
2022-08-22T08:25:25.885Z,99.90
2022-08-22T08:28:11.146Z,99.90
2022-08-22T08:30:40.219Z,99.90
2022-08-22T08:33:25.904Z,99.90
2022-08-22T08:36:03.876Z,99.90
2022-08-22T08:38:32.687Z,99.90
2022-08-22T08:41:14.055Z,99.90
2022-08-22T08:43:49.090Z,99.90
2022-08-22T08:46:30.120Z,99.90
2022-08-22T08:49:09.662Z,99.90
2022-08-22T08:51:42.216Z,99.90
2022-08-22T08:54:15.634Z,99.90
2022-08-22T08:56:57.912Z,99.90
2022-08-22T08:59:28.051Z,99.90
2022-08-22T09:01:55.059Z,99.90
2022-08-22T09:04:31.366Z,99.90
2022-08-22T09:07:07.916Z,99.90
2022-08-22T09:09:54.257Z,99.90
2022-08-22T09:12:30.120Z,99.90
2022-08-22T09:15:14.976Z,99.90
2022-08-22T09:17:41.498Z,99.90
2022-08-22T09:20:17.974Z,99.90
2022-08-22T09:23:04.477Z,99.90
2022-08-22T09:25:44.165Z,99.90
2022-08-22T09:28:13.952Z,99.90
2022-08-22T09:30:54.220Z,99.90
2022-08-22T09:33:22.655Z,99.90
2022-08-22T09:36:02.795Z,99.90
2022-08-22T09:38:48.053Z,99.90
2022-08-22T09:41:23.387Z,99.90
2022-08-22T09:44:09.794Z,99.90
2022-08-22T09:46:38.699Z,99.90
2022-08-22T09:49:08.531Z,99.90
2022-08-22T09:51:44.776Z,99.90
2022-08-22T09:54:18.649Z,99.90
2022-08-22T09:56:51.603Z,99.90
2022-08-22T09:59:29.596Z,99.90
2022-08-22T10:02:06.144Z,99.90
2022-08-22T10:04:47.425Z,99.90
2022-08-22T10:07:37.442Z,99.90
2022-08-22T10:10:27.354Z,99.90
2022-08-22T10:12:58.064Z,99.90
2022-08-22T10:15:29.270Z,99.90
2022-08-22T10:18:10.461Z,99.90
2022-08-22T10:20:57.402Z,99.90
2022-08-22T10:23:27.567Z,99.90
2022-08-22T10:25:58.160Z,99.90
2022-08-22T10:28:31.758Z,99.90
2022-08-22T10:31:09.659Z,99.90
2022-08-22T10:33:54.693Z,99.90
2022-08-22T10:36:27.783Z,99.90
2022-08-22T10:38:57.702Z,99.90
2022-08-22T10:41:28.562Z,99.90
2022-08-22T10:44:14.950Z,99.90
2022-08-22T10:46:54.154Z,99.90
2022-08-22T10:49:32.265Z,99.90
2022-08-22T10:52:17.029Z,99.90
2022-08-22T10:54:57.898Z,99.90
2022-08-22T10:57:27.855Z,99.90
2022-08-22T11:00:01.541Z,99.90
2022-08-22T11:02:28.039Z,99.90
2022-08-22T11:05:06.792Z,99.90
2022-08-22T11:07:36.311Z,99.90
2022-08-22T11:10:14.512Z,99.90
2022-08-22T11:12:49.795Z,99.90
2022-08-22T11:15:45.339Z,99.90
2022-08-22T11:18:20.415Z,99.90
2022-08-22T11:20:53.697Z,99.90
2022-08-22T11:23:41.914Z,99.90
2022-08-22T11:26:08.448Z,99.90
2022-08-22T11:28:50.898Z,99.90
2022-08-22T11:31:36.456Z,99.90
2022-08-22T11:34:21.188Z,99.90
2022-08-22T11:36:51.769Z,99.90
2022-08-22T11:39:19.013Z,99.90
2022-08-22T11:41:52.512Z,99.90
2022-08-22T11:44:22.310Z,99.90
2022-08-22T11:46:57.051Z,99.90
2022-08-22T11:49:43.239Z,99.90
2022-08-22T11:52:12.970Z,99.90
2022-08-22T11:54:51.785Z,99.90
2022-08-22T11:57:38.995Z,99.90
2022-08-22T12:00:12.811Z,99.90
2022-08-22T12:02:39.930Z,99.90
2022-08-22T12:05:27.102Z,99.90
2022-08-22T12:08:03.755Z,99.90
2022-08-22T12:10:33.574Z,99.90
2022-08-22T12:13:04.114Z,99.90
2022-08-22T12:15:39.551Z,99.90
2022-08-22T12:18:19.916Z,99.90
2022-08-22T12:21:02.955Z,99.90
2022-08-22T12:23:48.652Z,99.90
2022-08-22T12:26:22.021Z,99.90
2022-08-22T12:29:01.264Z,99.90
2022-08-22T12:31:54.157Z,99.90
2022-08-22T12:34:27.444Z,99.90
2022-08-22T12:37:13.676Z,99.90
2022-08-22T12:40:00.615Z,99.90
2022-08-22T12:42:46.182Z,99.90
2022-08-22T12:45:20.658Z,99.90
2022-08-22T12:48:07.438Z,99.90
2022-08-22T12:50:39.210Z,99.90
2022-08-22T12:53:09.114Z,99.50
2022-08-22T12:55:38.419Z,99.90
2022-08-22T12:58:20.364Z,99.90
2022-08-22T13:00:48.025Z,99.90
2022-08-22T13:03:14.574Z,99.90
2022-08-22T13:05:44.703Z,99.90
2022-08-22T13:08:26.420Z,99.90
2022-08-22T13:10:58.331Z,99.90
2022-08-22T13:13:31.389Z,99.90
2022-08-22T13:16:02.935Z,99.90
2022-08-22T13:18:36.554Z,99.80
2022-08-22T13:21:05.096Z,97.60
2022-08-22T13:23:34.378Z,97.90
2022-08-22T13:26:32.053Z,99.90
2022-08-22T13:29:24.668Z,99.30
2022-08-22T13:31:52.240Z,99.80
2022-08-22T13:34:43.423Z,99.70
2022-08-22T13:37:20.242Z,99.80
2022-08-22T13:39:53.601Z,99.80
2022-08-22T13:42:28.883Z,99.40
2022-08-22T13:44:59.594Z,98.70
2022-08-22T13:47:31.539Z,98.20
2022-08-22T13:50:07.600Z,97.90
2022-08-22T13:52:52.351Z,98.00
2022-08-22T13:55:34.475Z,97.20
2022-08-22T13:58:06.854Z,96.10
2022-08-22T14:00:57.349Z,98.50
2022-08-22T14:03:35.129Z,98.40
2022-08-22T14:06:37.101Z,97.40
2022-08-22T14:09:01.499Z,94.50
2022-08-22T14:11:48.287Z,93.30
2022-08-22T14:14:21.846Z,95.30
2022-08-22T14:16:50.721Z,95.00
2022-08-22T14:19:29.579Z,94.80
2022-08-22T14:21:59.512Z,94.40
2022-08-22T14:24:28.968Z,92.60
2022-08-22T14:26:58.288Z,91.60
2022-08-22T14:29:26.543Z,90.40
2022-08-22T14:32:01.147Z,90.20
2022-08-22T14:34:28.934Z,90.40
2022-08-22T14:37:04.638Z,90.50
2022-08-22T14:39:44.511Z,86.30
2022-08-22T14:42:11.242Z,86.00
2022-08-22T14:44:42.011Z,87.10
2022-08-22T14:47:32.321Z,90.70
2022-08-22T14:50:00.519Z,89.10
2022-08-22T14:52:43.919Z,84.60
2022-08-22T14:55:19.919Z,83.90
2022-08-22T14:57:54.336Z,82.10
2022-08-22T15:00:25.928Z,76.00
2022-08-22T15:03:05.839Z,75.40
2022-08-22T15:05:45.184Z,78.00
2022-08-22T15:08:19.618Z,80.00
2022-08-22T15:11:04.104Z,82.00
2022-08-22T15:13:31.166Z,80.90
2022-08-22T15:16:04.702Z,81.10
2022-08-22T15:18:34.447Z,78.10
2022-08-22T15:21:04.081Z,75.10
2022-08-22T15:23:45.083Z,74.90
2022-08-22T15:26:22.894Z,75.10
2022-08-22T15:28:55.122Z,75.90
2022-08-22T15:31:22.244Z,76.30
2022-08-22T15:33:50.098Z,72.80
2022-08-22T15:36:16.673Z,72.20
2022-08-22T15:38:47.917Z,75.40
2022-08-22T15:41:23.955Z,76.20
2022-08-22T15:44:00.319Z,73.40
2022-08-22T15:46:33.231Z,77.00
2022-08-22T15:49:06.239Z,72.80
2022-08-22T15:51:51.434Z,73.90
2022-08-22T15:54:25.033Z,73.90
2022-08-22T15:56:51.952Z,71.90
2022-08-22T15:59:53.412Z,72.30
2022-08-22T16:02:24.202Z,74.00
2022-08-22T16:04:54.915Z,74.20
2022-08-22T16:07:25.488Z,70.00
2022-08-22T16:09:53.607Z,75.30
2022-08-22T16:12:26.166Z,75.50
2022-08-22T16:14:52.894Z,75.40
2022-08-22T16:17:28.380Z,76.30
2022-08-22T16:20:19.438Z,71.50
2022-08-22T16:22:56.386Z,74.80
2022-08-22T16:25:41.646Z,73.70
2022-08-22T16:28:19.125Z,72.10
2022-08-22T16:30:52.462Z,73.30
2022-08-22T16:33:33.749Z,74.70
2022-08-22T16:36:18.350Z,74.00
2022-08-22T16:38:47.706Z,72.80
2022-08-22T16:41:32.341Z,74.50
2022-08-22T16:44:13.774Z,74.10
2022-08-22T16:46:42.535Z,71.60
2022-08-22T16:49:10.376Z,69.70
2022-08-22T16:51:55.803Z,68.90
2022-08-22T16:54:41.139Z,71.50
2022-08-22T16:57:27.926Z,70.60
2022-08-22T16:59:59.728Z,69.80
2022-08-22T17:02:34.378Z,70.90
2022-08-22T17:05:21.855Z,69.30
2022-08-22T17:07:48.346Z,70.90
2022-08-22T17:10:18.704Z,71.50
2022-08-22T17:13:06.126Z,70.00
2022-08-22T17:15:32.763Z,71.60
2022-08-22T17:18:12.129Z,70.90
2022-08-22T17:20:57.452Z,70.80
2022-08-22T17:23:42.870Z,70.30
2022-08-22T17:26:24.495Z,71.10
2022-08-22T17:29:04.330Z,72.60
2022-08-22T17:31:46.130Z,73.30
2022-08-22T17:34:19.715Z,74.40
2022-08-22T17:36:46.219Z,74.20
2022-08-22T17:39:12.987Z,74.40
2022-08-22T17:41:52.446Z,75.40
2022-08-22T17:44:25.682Z,75.60
2022-08-22T17:46:55.130Z,76.40
2022-08-22T17:49:24.700Z,77.20
2022-08-22T17:51:55.103Z,77.90
2022-08-22T17:54:29.677Z,78.40
2022-08-22T17:57:19.264Z,78.70
2022-08-22T17:59:49.407Z,79.20
2022-08-22T18:02:16.268Z,80.00
2022-08-22T18:04:52.405Z,80.10
2022-08-22T18:07:28.891Z,80.00
2022-08-22T18:10:14.530Z,80.50
2022-08-22T18:12:51.786Z,81.00
2022-08-22T18:15:21.190Z,81.60
2022-08-22T18:18:00.028Z,82.10
2022-08-22T18:20:45.067Z,82.50
2022-08-22T18:23:35.983Z,83.10
2022-08-22T18:26:13.025Z,83.30
2022-08-22T18:28:48.631Z,83.70
2022-08-22T18:31:38.180Z,84.20
2022-08-22T18:34:09.262Z,84.50
2022-08-22T18:36:39.571Z,85.30
2022-08-22T18:39:15.228Z,85.10
2022-08-22T18:42:07.938Z,86.00
2022-08-22T18:44:36.654Z,85.50
2022-08-22T18:47:15.033Z,86.20
2022-08-22T18:49:43.839Z,86.00
2022-08-22T18:52:22.198Z,86.50
2022-08-22T18:54:54.967Z,86.60
2022-08-22T18:57:38.700Z,87.10
2022-08-22T19:00:29.665Z,86.90
2022-08-22T19:03:17.423Z,87.20
2022-08-22T19:06:05.018Z,87.30
2022-08-22T19:08:53.611Z,87.50
2022-08-22T19:11:25.235Z,87.80
2022-08-22T19:14:16.958Z,88.00
2022-08-22T19:16:50.795Z,88.20
2022-08-22T19:19:21.127Z,88.40
2022-08-22T19:22:22.356Z,89.40
2022-08-22T19:25:08.987Z,89.40
2022-08-22T19:27:40.359Z,89.70
2022-08-22T19:30:28.092Z,90.00
2022-08-22T19:32:56.606Z,90.10
2022-08-22T19:35:25.837Z,90.30
2022-08-22T19:37:57.536Z,90.40
2022-08-22T19:40:42.515Z,90.50
2022-08-22T19:43:44.519Z,90.80
2022-08-22T19:46:12.650Z,90.90
2022-08-22T19:48:50.209Z,90.90
2022-08-22T19:51:20.263Z,91.20
2022-08-22T19:53:55.602Z,91.30
2022-08-22T19:56:31.804Z,91.30
2022-08-22T19:59:02.531Z,91.50
2022-08-22T20:01:56.066Z,91.50
2022-08-22T20:04:48.288Z,91.70
2022-08-22T20:07:39.173Z,91.90
2022-08-22T20:10:17.784Z,92.10
2022-08-22T20:13:07.588Z,92.10
2022-08-22T20:15:54.503Z,92.50
2022-08-22T20:18:48.667Z,92.60
2022-08-22T20:21:38.838Z,92.60
2022-08-22T20:24:08.709Z,92.60
2022-08-22T20:26:43.552Z,93.00
2022-08-22T20:29:30.368Z,93.00
2022-08-22T20:31:58.862Z,93.20
2022-08-22T20:34:27.724Z,93.30
2022-08-22T20:37:09.844Z,93.50
2022-08-22T20:39:59.179Z,93.60
2022-08-22T20:42:26.532Z,93.70
2022-08-22T20:44:53.800Z,94.20
2022-08-22T20:47:24.707Z,94.10
2022-08-22T20:49:53.306Z,94.00
2022-08-22T20:52:19.802Z,94.30
2022-08-22T20:54:57.540Z,94.30
2022-08-22T20:57:24.218Z,94.40
2022-08-22T20:59:53.354Z,94.60
2022-08-22T21:02:28.466Z,94.80
2022-08-22T21:05:02.694Z,94.70
2022-08-22T21:07:34.563Z,94.70
2022-08-22T21:10:24.508Z,95.40
2022-08-22T21:13:01.105Z,94.90
2022-08-22T21:15:31.860Z,95.10
2022-08-22T21:17:58.590Z,95.20
2022-08-22T21:20:29.579Z,95.60
2022-08-22T21:23:00.251Z,95.80
2022-08-22T21:25:26.818Z,95.70
2022-08-22T21:27:54.995Z,95.90
2022-08-22T21:30:23.511Z,96.10
2022-08-22T21:32:55.510Z,96.00
2022-08-22T21:35:29.753Z,96.20
2022-08-22T21:37:57.172Z,96.30
2022-08-22T21:40:29.697Z,96.20
2022-08-22T21:43:02.140Z,96.40
2022-08-22T21:45:30.886Z,96.60
2022-08-22T21:47:57.909Z,96.60
2022-08-22T21:50:26.501Z,96.80
2022-08-22T21:52:56.149Z,96.90
2022-08-22T21:55:26.218Z,97.10
2022-08-22T21:58:06.683Z,96.90
2022-08-22T22:00:49.408Z,97.00
2022-08-22T22:03:17.669Z,97.20
2022-08-22T22:05:44.242Z,97.20
2022-08-22T22:08:11.186Z,97.30
2022-08-22T22:10:41.798Z,97.40
2022-08-22T22:13:08.655Z,97.40
2022-08-22T22:15:36.907Z,97.50
2022-08-22T22:18:04.178Z,98.00
2022-08-22T22:20:30.898Z,97.70
2022-08-22T22:22:57.431Z,97.80
2022-08-22T22:25:40.999Z,98.00
2022-08-22T22:28:16.323Z,98.20
2022-08-22T22:30:43.229Z,97.80
2022-08-22T22:33:09.981Z,98.30
2022-08-22T22:35:40.008Z,98.20
2022-08-22T22:38:06.970Z,98.30
2022-08-22T22:40:33.666Z,98.40
2022-08-22T22:43:00.229Z,98.80
2022-08-22T22:45:26.832Z,98.70
2022-08-22T22:47:53.471Z,98.80
2022-08-22T22:50:20.065Z,98.50
2022-08-22T22:52:46.611Z,98.80
2022-08-22T22:55:13.236Z,98.80
2022-08-22T22:57:59.162Z,99.10
2022-08-22T23:00:30.886Z,99.00
2022-08-22T23:03:01.639Z,99.20
2022-08-22T23:05:29.247Z,99.10
2022-08-22T23:07:56.046Z,99.40
2022-08-22T23:10:22.625Z,99.80
2022-08-22T23:12:49.442Z,99.60
2022-08-22T23:15:16.635Z,99.70
2022-08-22T23:17:43.656Z,99.70
2022-08-22T23:20:10.403Z,99.70
2022-08-22T23:22:37.079Z,99.80
2022-08-22T23:25:04.355Z,99.80
2022-08-22T23:27:31.424Z,99.80
2022-08-22T23:29:57.954Z,99.90
2022-08-22T23:32:24.580Z,99.90
2022-08-22T23:34:51.207Z,99.90
2022-08-22T23:37:20.724Z,99.90
2022-08-22T23:39:47.460Z,99.90
2022-08-22T23:42:14.779Z,99.90
2022-08-22T23:44:42.114Z,99.90
2022-08-22T23:47:09.511Z,99.90
2022-08-22T23:49:36.582Z,99.90
2022-08-22T23:52:03.575Z,99.90
2022-08-22T23:54:30.247Z,99.90
2022-08-22T23:56:58.112Z,99.90
2022-08-22T23:59:30.623Z,99.90
